createdAt,value
2023-04-27T00:03:51.760Z,4.93
2023-04-27T00:06:18.661Z,2.58
2023-04-27T00:08:47.760Z,4.40
2023-04-27T00:11:14.702Z,2.15
2023-04-27T00:16:35.889Z,1.73
2023-04-27T00:19:07.710Z,2.90
2023-04-27T00:21:35.613Z,2.28
2023-04-27T00:24:08.954Z,1.25
2023-04-27T00:26:37.045Z,1.20
2023-04-27T00:34:29.893Z,1.67
2023-04-27T00:37:13.854Z,1.33
2023-04-27T00:39:44.368Z,2.05
2023-04-27T00:42:21.761Z,0.98
2023-04-27T00:44:49.484Z,1.48
2023-04-27T00:47:20.301Z,1.38
2023-04-27T00:50:42.249Z,1.60
2023-04-27T00:53:09.496Z,1.10
2023-04-27T00:55:39.609Z,1.25
2023-04-27T00:58:07.517Z,1.08
2023-04-27T01:00:36.982Z,1.25
2023-04-27T01:03:05.210Z,1.25
2023-04-27T01:05:33.739Z,2.33
2023-04-27T01:08:01.733Z,2.35
2023-04-27T01:10:28.959Z,2.97
2023-04-27T01:12:56.834Z,3.35
2023-04-27T01:15:25.024Z,3.75
2023-04-27T01:17:59.185Z,2.90
2023-04-27T01:20:31.224Z,4.40
2023-04-27T01:23:02.446Z,4.38
2023-04-27T01:25:29.513Z,4.40
2023-04-27T01:27:56.820Z,5.93
2023-04-27T01:30:26.466Z,6.20
2023-04-27T01:32:53.881Z,6.18
2023-04-27T01:35:21.890Z,5.65
2023-04-27T01:40:19.652Z,5.18
2023-04-27T01:42:50.051Z,5.45
2023-04-27T01:45:21.189Z,4.03
2023-04-27T01:48:11.189Z,2.53
2023-04-27T01:50:50.728Z,2.05
2023-04-27T01:53:18.155Z,1.48
2023-04-27T01:55:45.792Z,1.52
2023-04-27T01:58:13.226Z,3.00
2023-04-27T02:00:40.983Z,1.58
2023-04-27T02:03:17.311Z,1.38
2023-04-27T02:05:45.793Z,1.38
2023-04-27T02:08:17.241Z,1.75
2023-04-27T02:10:44.440Z,1.10
2023-04-27T02:13:15.970Z,1.67
2023-04-27T02:15:46.257Z,1.17
2023-04-27T02:18:16.262Z,0.57
2023-04-27T02:20:43.701Z,2.35
2023-04-27T02:23:11.933Z,3.65
2023-04-27T02:25:39.634Z,2.63
2023-04-27T02:28:07.401Z,1.55
2023-04-27T02:33:02.448Z,3.50
2023-04-27T02:35:29.642Z,1.17
2023-04-27T02:37:57.931Z,1.75
2023-04-27T02:40:25.145Z,1.15
2023-04-27T02:42:59.963Z,3.63
2023-04-27T02:45:39.900Z,1.65
2023-04-27T02:48:07.940Z,3.80
2023-04-27T02:53:04.694Z,1.02
2023-04-27T02:55:38.109Z,1.23
2023-04-27T02:58:05.261Z,1.45
2023-04-27T03:00:40.284Z,1.70
2023-04-27T03:03:08.670Z,1.40
2023-04-27T03:05:42.196Z,1.95
2023-04-27T03:08:09.257Z,1.98
2023-04-27T03:10:36.893Z,2.00
2023-04-27T03:13:03.883Z,1.90
2023-04-27T03:15:36.768Z,3.20
2023-04-27T03:18:03.734Z,2.85
2023-04-27T03:20:30.570Z,3.55
2023-04-27T03:22:57.341Z,3.38
2023-04-27T03:25:24.572Z,2.65
2023-04-27T03:27:51.542Z,2.15
2023-04-27T03:30:25.649Z,2.95
2023-04-27T03:32:52.725Z,2.05
2023-04-27T03:35:20.307Z,1.60
2023-04-27T03:37:49.627Z,2.08
2023-04-27T03:40:17.350Z,2.58
2023-04-27T03:42:44.547Z,3.13
2023-04-27T03:45:12.824Z,3.15
2023-04-27T03:47:42.471Z,2.80
2023-04-27T03:50:10.126Z,3.13
2023-04-27T03:52:37.308Z,4.13
2023-04-27T03:55:04.984Z,4.72
2023-04-27T03:57:32.605Z,5.80
2023-04-27T04:00:00.082Z,2.15
2023-04-27T04:02:31.155Z,2.67
2023-04-27T04:05:01.899Z,2.78
2023-04-27T04:07:29.248Z,4.05
2023-04-27T04:09:56.603Z,3.85
2023-04-27T04:12:23.740Z,4.00
2023-04-27T04:14:51.782Z,2.20
2023-04-27T04:19:48.723Z,4.22
2023-04-27T04:22:18.735Z,3.78
2023-04-27T04:24:48.760Z,4.43
2023-04-27T04:27:18.872Z,3.55
2023-04-27T04:29:49.909Z,3.20
2023-04-27T04:32:22.571Z,4.20
2023-04-27T04:34:56.311Z,4.50
2023-04-27T04:37:34.320Z,4.53
2023-04-27T04:40:09.491Z,4.03
2023-04-27T04:42:38.484Z,4.38
2023-04-27T04:45:07.256Z,5.30
2023-04-27T04:47:38.608Z,3.92
2023-04-27T04:50:11.372Z,3.97
2023-04-27T04:52:45.114Z,5.90
2023-04-27T04:55:18.236Z,6.10
2023-04-27T04:57:45.177Z,7.30
2023-04-27T05:00:13.693Z,6.38
2023-04-27T05:02:41.892Z,7.30
2023-04-27T05:05:09.945Z,8.68
2023-04-27T05:07:37.155Z,7.55
2023-04-27T05:10:04.601Z,7.22
2023-04-27T05:12:31.913Z,9.57
2023-04-27T05:14:58.657Z,6.90
2023-04-27T05:17:27.372Z,7.53
2023-04-27T05:19:54.107Z,7.88
2023-04-27T05:22:21.308Z,5.72
2023-04-27T05:24:52.221Z,5.82
2023-04-27T05:27:22.294Z,5.20
2023-04-27T05:29:49.510Z,6.40
2023-04-27T05:32:20.673Z,3.28
2023-04-27T05:34:51.562Z,4.60
2023-04-27T05:37:18.578Z,6.28
2023-04-27T05:39:45.768Z,12.03
2023-04-27T05:42:12.776Z,11.43
2023-04-27T05:44:40.108Z,8.77
2023-04-27T05:47:07.205Z,7.40
2023-04-27T05:49:41.067Z,7.70
2023-04-27T05:52:08.115Z,6.97
2023-04-27T05:54:34.986Z,7.70
2023-04-27T05:57:01.673Z,7.68
2023-04-27T05:59:29.503Z,8.63
2023-04-27T06:01:57.213Z,7.25
2023-04-27T06:04:24.302Z,6.95
2023-04-27T06:06:51.648Z,7.40
2023-04-27T06:09:18.534Z,7.63
2023-04-27T06:11:48.530Z,5.43
2023-04-27T06:14:18.537Z,5.65
2023-04-27T06:16:45.680Z,6.72
2023-04-27T06:19:12.901Z,4.18
2023-04-27T06:21:40.033Z,4.32
2023-04-27T06:24:07.101Z,4.97
2023-04-27T06:26:33.944Z,5.30
2023-04-27T06:29:00.795Z,5.10
2023-04-27T06:31:33.581Z,3.95
2023-04-27T06:34:01.202Z,5.22
2023-04-27T06:36:28.252Z,3.22
2023-04-27T06:38:56.874Z,3.10
2023-04-27T06:41:25.282Z,3.13
2023-04-27T06:43:53.254Z,4.95
2023-04-27T06:48:47.653Z,4.18
2023-04-27T06:51:14.612Z,3.50
2023-04-27T06:53:41.610Z,5.45
2023-04-27T06:56:11.877Z,5.00
2023-04-27T06:58:38.743Z,6.22
2023-04-27T07:01:05.709Z,4.40
2023-04-27T07:03:35.760Z,4.20
2023-04-27T07:06:02.707Z,5.20
2023-04-27T07:08:29.535Z,5.55
2023-04-27T07:10:56.460Z,5.20
2023-04-27T07:13:23.952Z,5.87
2023-04-27T07:15:58.321Z,7.75
2023-04-27T07:18:28.238Z,4.60
2023-04-27T07:20:58.219Z,4.60
2023-04-27T07:23:25.205Z,5.47
2023-04-27T07:25:52.437Z,7.72
2023-04-27T07:28:19.189Z,10.50
2023-04-27T07:30:45.948Z,9.65
2023-04-27T07:33:13.486Z,7.93
2023-04-27T07:35:40.608Z,6.40
2023-04-27T07:38:08.566Z,6.15
2023-04-27T07:43:03.047Z,6.80
2023-04-27T07:45:33.791Z,7.43
2023-04-27T07:48:02.546Z,5.65
2023-04-27T07:50:30.336Z,6.15
2023-04-27T07:52:58.388Z,5.40
2023-04-27T07:55:29.010Z,4.68
2023-04-27T07:57:57.588Z,5.75
2023-04-27T08:00:25.818Z,5.28
2023-04-27T08:02:54.513Z,7.20
2023-04-27T08:05:24.781Z,7.13
2023-04-27T08:07:54.463Z,5.82
2023-04-27T08:10:22.391Z,6.22
2023-04-27T08:12:49.363Z,6.18
2023-04-27T08:15:16.471Z,5.80
2023-04-27T08:17:43.892Z,6.40
2023-04-27T08:20:12.045Z,5.18
2023-04-27T08:22:48.620Z,7.13
2023-04-27T08:25:16.473Z,6.40
2023-04-27T08:27:44.376Z,5.47
2023-04-27T08:32:39.144Z,6.70
2023-04-27T08:35:06.649Z,9.30
2023-04-27T08:37:36.787Z,9.23
2023-04-27T08:40:16.214Z,12.05
2023-04-27T08:42:56.512Z,17.80
2023-04-27T08:45:27.729Z,8.00
2023-04-27T08:47:54.861Z,7.28
2023-04-27T08:50:24.266Z,5.85
2023-04-27T08:52:52.436Z,6.55
2023-04-27T08:55:19.819Z,6.38
2023-04-27T08:57:59.152Z,6.82
2023-04-27T09:00:27.235Z,6.80
2023-04-27T09:02:54.524Z,7.97
2023-04-27T09:05:56.406Z,7.93
2023-04-27T09:08:51.328Z,6.70
2023-04-27T09:11:37.495Z,6.97
2023-04-27T09:14:20.188Z,7.35
2023-04-27T09:17:00.417Z,9.57
2023-04-27T09:19:31.939Z,6.32
2023-04-27T09:22:25.589Z,5.50
2023-04-27T09:24:53.219Z,6.45
2023-04-27T09:27:22.227Z,7.70
2023-04-27T09:29:49.209Z,8.25
2023-04-27T09:32:21.316Z,6.53
2023-04-27T09:34:48.089Z,5.95
2023-04-27T09:37:15.113Z,7.75
2023-04-27T09:39:42.636Z,5.88
2023-04-27T09:42:11.191Z,5.93
2023-04-27T09:44:37.951Z,5.82
2023-04-27T09:47:05.440Z,6.13
2023-04-27T09:49:38.496Z,6.90
2023-04-27T09:52:05.178Z,6.45
2023-04-27T09:54:37.550Z,4.35
2023-04-27T09:57:20.922Z,4.45
2023-04-27T09:59:49.831Z,5.22
2023-04-27T10:02:25.451Z,4.68
2023-04-27T10:05:04.537Z,5.20
2023-04-27T10:07:33.286Z,3.88
2023-04-27T10:10:08.690Z,10.07
2023-04-27T10:12:36.820Z,6.60
2023-04-27T10:15:15.953Z,7.15
2023-04-27T10:17:59.306Z,5.95
2023-04-27T10:20:37.277Z,5.25
2023-04-27T10:23:04.931Z,6.78
2023-04-27T10:25:47.290Z,5.10
2023-04-27T10:28:21.520Z,7.35
2023-04-27T10:30:49.992Z,6.28
2023-04-27T10:33:19.483Z,6.68
2023-04-27T10:35:56.066Z,4.55
2023-04-27T10:38:29.152Z,9.38
2023-04-27T10:40:58.598Z,8.70
2023-04-27T10:43:30.461Z,12.75
2023-04-27T10:46:19.212Z,8.13
2023-04-27T10:48:48.312Z,3.13
2023-04-27T10:51:18.452Z,6.20
2023-04-27T10:53:45.939Z,4.05
2023-04-27T10:56:12.699Z,5.15
2023-04-27T11:01:09.501Z,4.22
2023-04-27T11:03:36.939Z,3.85
2023-04-27T11:06:05.843Z,4.47
2023-04-27T11:08:34.411Z,6.15
2023-04-27T11:11:06.267Z,5.65
2023-04-27T11:13:36.866Z,9.63
2023-04-27T11:16:05.634Z,7.43
2023-04-27T11:18:34.137Z,10.57
2023-04-27T11:21:11.140Z,17.92
2023-04-27T11:23:42.854Z,22.17
2023-04-27T11:26:26.368Z,17.50
2023-04-27T11:29:13.873Z,9.60
2023-04-27T11:31:49.369Z,16.25
2023-04-27T11:34:24.107Z,17.50
2023-04-27T11:37:17.221Z,23.15
2023-04-27T11:39:46.074Z,20.42
2023-04-27T11:42:23.436Z,33.92
2023-04-27T11:45:03.123Z,27.98
2023-04-27T11:47:31.581Z,14.20
2023-04-27T11:50:00.810Z,5.85
2023-04-27T11:52:36.012Z,7.57
2023-04-27T11:55:07.304Z,8.20
2023-04-27T11:57:36.126Z,19.30
2023-04-27T12:00:14.555Z,16.00
2023-04-27T12:02:44.283Z,17.67
2023-04-27T12:05:13.830Z,16.52
2023-04-27T12:07:41.446Z,17.98
2023-04-27T12:10:09.397Z,18.40
2023-04-27T12:12:36.397Z,15.75
2023-04-27T12:15:03.859Z,11.20
2023-04-27T12:17:34.557Z,11.65
2023-04-27T12:20:05.504Z,9.65
2023-04-27T12:22:33.127Z,8.52
2023-04-27T12:25:00.931Z,6.13
2023-04-27T12:27:27.956Z,7.47
2023-04-27T12:29:55.109Z,9.00
2023-04-27T12:32:22.541Z,7.10
2023-04-27T12:34:54.964Z,5.43
2023-04-27T12:37:23.012Z,7.57
2023-04-27T12:39:50.638Z,8.15
2023-04-27T12:42:19.756Z,9.93
2023-04-27T12:44:46.628Z,5.75
2023-04-27T12:47:23.641Z,4.70
2023-04-27T12:50:00.776Z,8.10
2023-04-27T12:52:28.057Z,5.22
2023-04-27T12:54:57.804Z,5.20
2023-04-27T12:57:24.854Z,5.80
2023-04-27T12:59:52.468Z,13.45
2023-04-27T13:02:19.864Z,8.98
2023-04-27T13:04:46.925Z,10.07
2023-04-27T13:07:16.974Z,17.02
2023-04-27T13:09:58.908Z,11.90
2023-04-27T13:12:34.372Z,6.20
2023-04-27T13:15:01.551Z,7.70
2023-04-27T13:17:28.281Z,8.57
2023-04-27T13:19:55.636Z,7.05
2023-04-27T13:22:23.514Z,6.65
2023-04-27T13:24:56.641Z,8.75
2023-04-27T13:27:28.892Z,32.85
2023-04-27T13:29:58.900Z,15.63
2023-04-27T13:32:28.722Z,5.78
2023-04-27T13:34:55.856Z,8.07
2023-04-27T13:37:22.736Z,9.38
2023-04-27T13:39:59.580Z,6.07
2023-04-27T13:42:30.070Z,6.10
2023-04-27T13:44:57.222Z,9.18
2023-04-27T13:47:23.967Z,5.60
2023-04-27T13:49:51.072Z,7.57
2023-04-27T13:52:18.474Z,6.82
2023-04-27T13:54:48.780Z,6.93
2023-04-27T13:57:21.132Z,10.52
2023-04-27T13:59:48.423Z,7.05
2023-04-27T14:02:16.160Z,5.43
2023-04-27T14:07:13.690Z,12.27
2023-04-27T14:09:41.225Z,16.88
2023-04-27T14:12:09.356Z,19.50
2023-04-27T14:14:39.452Z,27.35
2023-04-27T14:17:06.956Z,18.30
2023-04-27T14:19:33.802Z,10.52
2023-04-27T14:22:05.205Z,9.23
2023-04-27T14:24:32.356Z,9.48
2023-04-27T14:26:59.164Z,8.68
2023-04-27T14:29:35.286Z,9.63
2023-04-27T14:32:03.883Z,9.75
2023-04-27T14:34:31.077Z,10.48
2023-04-27T14:36:58.059Z,10.38
2023-04-27T14:39:25.163Z,7.97
2023-04-27T14:41:52.442Z,7.22
2023-04-27T14:44:19.801Z,18.50
2023-04-27T14:46:56.848Z,10.82
2023-04-27T14:49:27.469Z,4.30
2023-04-27T14:52:01.125Z,3.53
2023-04-27T14:54:31.444Z,2.55
2023-04-27T14:56:59.014Z,3.42
2023-04-27T14:59:26.095Z,4.30
2023-04-27T15:01:52.930Z,6.73
2023-04-27T15:04:20.273Z,10.53
2023-04-27T15:06:47.100Z,6.53
2023-04-27T15:09:14.158Z,4.82
2023-04-27T15:11:41.554Z,3.47
2023-04-27T15:14:11.819Z,3.80
2023-04-27T15:16:39.162Z,5.63
2023-04-27T15:19:10.074Z,6.28
2023-04-27T15:21:38.414Z,4.25
2023-04-27T15:24:06.842Z,9.65
2023-04-27T15:26:34.319Z,14.85
2023-04-27T15:29:08.516Z,12.25
2023-04-27T15:31:36.528Z,9.77
2023-04-27T15:34:03.995Z,6.88
2023-04-27T15:36:33.182Z,4.32
2023-04-27T15:38:59.974Z,5.97
2023-04-27T15:41:27.438Z,9.60
2023-04-27T15:43:54.616Z,8.77
2023-04-27T15:46:21.442Z,7.35
2023-04-27T15:48:50.140Z,14.70
2023-04-27T15:51:16.982Z,13.95
2023-04-27T15:53:46.850Z,20.10
2023-04-27T15:56:13.757Z,16.33
2023-04-27T15:58:46.652Z,16.98
2023-04-27T16:01:13.490Z,18.23
2023-04-27T16:03:40.548Z,11.18
2023-04-27T16:06:08.025Z,12.33
2023-04-27T16:08:35.326Z,9.07
2023-04-27T16:11:06.214Z,10.30
2023-04-27T16:13:33.594Z,9.80
2023-04-27T16:16:04.305Z,14.80
2023-04-27T16:18:35.724Z,9.52
2023-04-27T16:21:02.625Z,13.90
2023-04-27T16:23:29.746Z,9.57
2023-04-27T16:25:56.776Z,7.45
2023-04-27T16:28:23.597Z,9.77
2023-04-27T16:30:50.480Z,7.80
2023-04-27T16:33:19.363Z,9.33
2023-04-27T16:35:46.330Z,10.52
2023-04-27T16:38:13.444Z,7.65
2023-04-27T16:40:40.357Z,8.52
2023-04-27T16:43:07.259Z,8.25
2023-04-27T16:45:34.519Z,9.48
2023-04-27T16:48:03.103Z,12.50
2023-04-27T16:50:31.786Z,11.52
2023-04-27T16:53:09.611Z,9.85
2023-04-27T16:55:38.934Z,8.95
2023-04-27T16:58:08.190Z,9.05
2023-04-27T17:00:36.204Z,10.20
2023-04-27T17:03:03.751Z,8.98
2023-04-27T17:05:33.792Z,12.82
2023-04-27T17:08:03.611Z,10.35
2023-04-27T17:10:32.440Z,10.23
2023-04-27T17:13:10.978Z,10.55
2023-04-27T17:15:38.575Z,9.32
2023-04-27T17:18:05.747Z,10.63
2023-04-27T17:20:33.501Z,14.20
2023-04-27T17:23:03.845Z,13.43
2023-04-27T17:25:31.956Z,20.40
2023-04-27T17:28:01.256Z,16.05
2023-04-27T17:30:28.994Z,11.48
2023-04-27T17:32:56.308Z,10.70
2023-04-27T17:35:23.930Z,10.55
2023-04-27T17:37:52.139Z,11.40
2023-04-27T17:40:23.383Z,11.73
2023-04-27T17:42:51.413Z,11.35
2023-04-27T17:47:47.049Z,15.77
2023-04-27T17:50:17.783Z,19.98
2023-04-27T17:52:47.791Z,27.23
2023-04-27T17:55:30.595Z,20.90
2023-04-27T17:58:02.141Z,16.20
2023-04-27T18:00:30.338Z,18.27
2023-04-27T18:03:01.714Z,16.27
2023-04-27T18:05:28.939Z,16.77
2023-04-27T18:08:11.303Z,18.90
2023-04-27T18:10:48.913Z,15.35
2023-04-27T18:13:19.473Z,14.50
2023-04-27T18:15:52.159Z,12.07
2023-04-27T18:18:25.095Z,12.98
2023-04-27T18:20:52.808Z,14.57
2023-04-27T18:23:22.768Z,12.18
2023-04-27T18:25:50.336Z,13.25
2023-04-27T18:28:17.610Z,8.32
2023-04-27T18:30:44.826Z,10.27
2023-04-27T18:33:12.071Z,13.70
2023-04-27T18:35:45.680Z,10.52
2023-04-27T18:38:23.485Z,9.48
2023-04-27T18:43:20.272Z,10.45
2023-04-27T18:45:47.796Z,9.98
2023-04-27T18:48:15.099Z,10.52
2023-04-27T18:50:43.040Z,12.73
2023-04-27T18:53:10.210Z,13.93
2023-04-27T18:55:40.709Z,11.93
2023-04-27T18:58:08.193Z,10.48
2023-04-27T19:00:35.295Z,9.23
2023-04-27T19:03:02.495Z,11.30
2023-04-27T19:05:33.144Z,11.50
2023-04-27T19:08:03.189Z,7.90
2023-04-27T19:10:32.354Z,10.82
2023-04-27T19:12:59.916Z,7.38
2023-04-27T19:15:27.594Z,8.38
2023-04-27T19:18:02.949Z,8.52
2023-04-27T19:20:36.558Z,8.23
2023-04-27T19:23:03.434Z,8.63
2023-04-27T19:25:30.304Z,8.63
2023-04-27T19:27:57.212Z,8.60
2023-04-27T19:30:24.270Z,8.38
2023-04-27T19:32:51.314Z,7.20
2023-04-27T19:35:20.568Z,7.57
2023-04-27T19:37:47.906Z,6.97
2023-04-27T19:40:20.955Z,10.07
2023-04-27T19:43:15.068Z,6.68
2023-04-27T19:45:42.797Z,6.90
2023-04-27T19:48:16.200Z,10.23
2023-04-27T19:50:44.364Z,8.05
2023-04-27T19:53:14.374Z,8.38
2023-04-27T19:55:42.749Z,10.98
2023-04-27T19:58:10.083Z,9.18
2023-04-27T20:00:39.793Z,9.27
2023-04-27T20:03:07.503Z,7.38
2023-04-27T20:05:37.035Z,8.35
2023-04-27T20:08:04.487Z,8.63
2023-04-27T20:10:36.741Z,9.35
2023-04-27T20:13:04.102Z,6.68
2023-04-27T20:15:31.490Z,8.48
2023-04-27T20:17:58.583Z,9.27
2023-04-27T20:20:55.552Z,8.10
2023-04-27T20:23:22.873Z,10.10
2023-04-27T20:25:50.079Z,7.40
2023-04-27T20:28:20.423Z,7.78
2023-04-27T20:30:58.942Z,10.35
2023-04-27T20:33:34.098Z,8.13
2023-04-27T20:36:17.809Z,9.40
2023-04-27T20:39:09.283Z,8.82
2023-04-27T20:41:39.377Z,11.43
2023-04-27T20:44:24.037Z,10.32
2023-04-27T20:46:56.409Z,9.75
2023-04-27T20:49:33.899Z,9.70
2023-04-27T20:52:02.275Z,9.70
2023-04-27T20:54:33.438Z,10.13
2023-04-27T20:57:13.680Z,9.30
2023-04-27T20:59:44.286Z,11.45
2023-04-27T21:02:11.099Z,11.30
2023-04-27T21:04:41.025Z,9.32
2023-04-27T21:10:07.573Z,9.70
2023-04-27T21:12:38.267Z,13.55
2023-04-27T21:15:20.655Z,12.93
2023-04-27T21:17:59.383Z,13.35
2023-04-27T21:20:31.371Z,12.27
2023-04-27T21:23:02.267Z,10.10
2023-04-27T21:25:35.330Z,12.02
2023-04-27T21:28:06.169Z,11.75
2023-04-27T21:30:49.972Z,11.82
2023-04-27T21:33:17.467Z,9.85
2023-04-27T21:36:08.156Z,7.28
2023-04-27T21:38:49.538Z,8.20
2023-04-27T21:41:26.255Z,5.53
2023-04-27T21:43:59.913Z,5.60
2023-04-27T21:46:30.362Z,5.72
2023-04-27T21:51:56.340Z,5.60
2023-04-27T21:54:23.386Z,6.25
2023-04-27T21:56:50.993Z,3.50
2023-04-27T21:59:24.708Z,4.28
2023-04-27T22:01:52.342Z,5.47
2023-04-27T22:07:10.332Z,4.15
2023-04-27T22:09:47.086Z,3.83
2023-04-27T22:12:17.751Z,2.70
2023-04-27T22:15:31.426Z,4.30
2023-04-27T22:18:19.805Z,3.03
2023-04-27T22:20:50.242Z,3.25
2023-04-27T22:26:11.120Z,2.88
2023-04-27T22:28:41.756Z,5.03
2023-04-27T22:31:11.570Z,3.90
2023-04-27T22:33:41.266Z,2.30
2023-04-27T22:36:12.716Z,2.45
2023-04-27T22:38:54.929Z,4.45
2023-04-27T22:41:27.813Z,2.72
2023-04-27T22:43:57.887Z,2.63
2023-04-27T22:46:42.154Z,3.08
2023-04-27T22:49:25.644Z,2.85
2023-04-27T22:52:05.185Z,2.58
2023-04-27T22:54:38.763Z,5.40
2023-04-27T22:57:55.361Z,3.65
2023-04-27T23:02:16.459Z,4.68
2023-04-27T23:07:40.642Z,1.38
2023-04-27T23:11:28.040Z,3.10
2023-04-27T23:18:01.195Z,3.53
2023-04-27T23:21:20.604Z,3.47
2023-04-27T23:27:48.958Z,3.22
2023-04-27T23:31:42.672Z,4.55
2023-04-27T23:44:12.809Z,2.22
2023-04-27T23:47:12.452Z,3.53
2023-04-27T23:50:08.366Z,3.13
2023-04-27T23:52:50.374Z,2.28
2023-04-27T23:55:46.340Z,3.10
2023-04-27T23:58:36.662Z,5.53
